Time;durP1;ratioP1;P1;durP2;ratioP2;P2;SDS_P1;SDS_P2;PMS_P1;PMS_P2;Temp;Humidity;BMP_temperature;BMP_pressure;BME280_temperature;BME280_humidity;BME280_pressure;Samples;Min_cycle;Max_cycle;Signal;HPM_P1;HPM_P2
2022/03/22 00:00:03;;;;;;;;;10.50;5.00;;;;;;;;5039136;28;51430;-45
2022/03/22 00:02:49;;;;;;;;;8.50;3.50;;;;;;;;5036940;28;51273;-47
2022/03/22 00:05:34;;;;;;;;;8.25;4.75;;;;;;;;5038670;28;51460;-51
2022/03/22 00:08:22;;;;;;;;;7.00;4.25;;;;;;;;5035763;28;51092;-48
2022/03/22 00:11:12;;;;;;;;;10.00;4.75;;;;;;;;5039107;28;51285;-52
2022/03/22 00:13:58;;;;;;;;;8.25;6.75;;;;;;;;5038997;28;51203;-49
2022/03/22 00:16:43;;;;;;;;;7.75;4.50;;;;;;;;5039418;28;51188;-47
2022/03/22 00:19:34;;;;;;;;;9.00;5.25;;;;;;;;5038188;28;51111;-47
2022/03/22 00:22:20;;;;;;;;;8.50;3.50;;;;;;;;5038603;28;51200;-48
2022/03/22 00:25:18;;;;;;;;;5.75;4.50;;;;;;;;5038475;28;51442;-46
2022/03/22 00:28:03;;;;;;;;;8.00;5.25;;;;;;;;5039132;28;51201;-45
2022/03/22 00:30:50;;;;;;;;;6.75;4.00;;;;;;;;5037185;28;51404;-47
2022/03/22 00:33:48;;;;;;;;;10.75;6.50;;;;;;;;5039027;28;51190;-45
2022/03/22 00:36:50;;;;;;;;;6.00;4.00;;;;;;;;5039612;28;51444;-46
2022/03/22 00:39:36;;;;;;;;;6.25;3.00;;;;;;;;5036087;28;51489;-48
2022/03/22 00:42:21;;;;;;;;;5.75;4.75;;;;;;;;5022979;28;51037;-46
2022/03/22 00:45:09;;;;;;;;;6.50;5.25;;;;;;;;5038572;28;51546;-46
2022/03/22 00:48:06;;;;;;;;;6.00;4.50;;;;;;;;5037057;28;51196;-46
2022/03/22 00:50:51;;;;;;;;;7.75;4.00;;;;;;;;5038271;28;52187;-46
2022/03/22 00:53:37;;;;;;;;;7.75;5.00;;;;;;;;5037996;28;51053;-47
2022/03/22 00:56:25;;;;;;;;;5.50;3.75;;;;;;;;5036207;28;51180;-47
2022/03/22 01:02:24;;;;;;;;;8.75;4.50;;;;;;;;5035659;28;52079;-45
2022/03/22 01:05:13;;;;;;;;;6.75;5.50;;;;;;;;5036240;28;51465;-45
2022/03/22 01:08:02;;;;;;;;;11.75;7.75;;;;;;;;5038689;28;51227;-47
2022/03/22 01:10:52;;;;;;;;;6.25;3.25;;;;;;;;5038134;28;51392;-46
2022/03/22 01:13:38;;;;;;;;;10.50;6.75;;;;;;;;5038022;28;51121;-46
2022/03/22 01:16:28;;;;;;;;;6.75;4.00;;;;;;;;5032801;28;51055;-47
2022/03/22 01:19:21;;;;;;;;;5.25;3.25;;;;;;;;5038103;28;51179;-47
2022/03/22 01:22:20;;;;;;;;;8.00;4.00;;;;;;;;5036395;28;51353;-45
2022/03/22 01:25:13;;;;;;;;;8.50;3.75;;;;;;;;5038630;28;51033;-46
2022/03/22 01:28:19;;;;;;;;;12.75;5.25;;;;;;;;5035748;28;51405;-46
2022/03/22 01:31:05;;;;;;;;;6.50;2.75;;;;;;;;5037863;28;51096;-47
2022/03/22 01:33:59;;;;;;;;;5.25;2.00;;;;;;;;5025605;28;51217;-48
2022/03/22 01:36:47;;;;;;;;;8.00;5.25;;;;;;;;5034501;28;51422;-48
2022/03/22 01:39:32;;;;;;;;;12.00;4.00;;;;;;;;5022966;28;51212;-46
2022/03/22 01:42:38;;;;;;;;;3.75;2.75;;;;;;;;5037515;28;51116;-46
2022/03/22 01:45:23;;;;;;;;;8.00;4.75;;;;;;;;5032548;28;51147;-47
2022/03/22 01:48:08;;;;;;;;;5.00;4.00;;;;;;;;5019542;28;51210;-46
2022/03/22 01:50:54;;;;;;;;;6.50;4.25;;;;;;;;5035400;28;51099;-47
2022/03/22 01:53:41;;;;;;;;;5.00;4.50;;;;;;;;5021032;28;51487;-48
2022/03/22 01:56:36;;;;;;;;;9.00;3.75;;;;;;;;5037501;28;51100;-46
2022/03/22 01:59:28;;;;;;;;;8.00;4.75;;;;;;;;5037823;28;51246;-51
2022/03/22 02:08:26;;;;;;;;;7.50;4.75;;;;;;;;5041430;28;51032;-46
2022/03/22 02:11:11;;;;;;;;;7.25;5.00;;;;;;;;5041719;28;50998;-47
2022/03/22 02:13:56;;;;;;;;;10.50;4.50;;;;;;;;5039015;28;51155;-49
2022/03/22 02:16:40;;;;;;;;;13.25;6.25;;;;;;;;5040923;28;51014;-45
2022/03/22 02:19:26;;;;;;;;;4.00;3.75;;;;;;;;5041141;28;51361;-47
2022/03/22 02:22:12;;;;;;;;;7.00;4.75;;;;;;;;5040720;28;51175;-45
2022/03/22 02:25:01;;;;;;;;;8.25;4.25;;;;;;;;5037187;28;51241;-47
2022/03/22 02:27:47;;;;;;;;;8.25;4.00;;;;;;;;5035881;28;51179;-47
2022/03/22 02:30:37;;;;;;;;;3.25;2.50;;;;;;;;5039461;28;51163;-46
2022/03/22 02:33:22;;;;;;;;;5.00;3.25;;;;;;;;5039949;28;51079;-47
2022/03/22 02:36:10;;;;;;;;;2.75;2.25;;;;;;;;5040437;28;51183;-46
2022/03/22 02:38:57;;;;;;;;;5.00;4.00;;;;;;;;5040417;28;51626;-47
2022/03/22 02:41:43;;;;;;;;;5.75;5.00;;;;;;;;5040130;28;51166;-47
2022/03/22 02:44:28;;;;;;;;;9.25;4.25;;;;;;;;5040853;28;51330;-47
2022/03/22 02:47:39;;;;;;;;;7.50;4.50;;;;;;;;5039565;28;51104;-46
2022/03/22 02:50:24;;;;;;;;;9.25;4.50;;;;;;;;5035982;28;51171;-46
2022/03/22 02:53:11;;;;;;;;;5.25;3.25;;;;;;;;5031265;28;51354;-49
2022/03/22 02:55:57;;;;;;;;;6.00;5.25;;;;;;;;5039205;28;51097;-45
2022/03/22 02:58:42;;;;;;;;;4.00;3.00;;;;;;;;5034316;28;51401;-46
2022/03/22 03:01:41;;;;;;;;;7.50;4.75;;;;;;;;5040356;28;51164;-45
2022/03/22 03:04:25;;;;;;;;;7.75;5.00;;;;;;;;5036919;28;51930;-47
2022/03/22 03:07:10;;;;;;;;;8.50;3.25;;;;;;;;5034423;28;51123;-45
2022/03/22 03:09:54;;;;;;;;;5.75;5.00;;;;;;;;5039566;28;51267;-46
2022/03/22 03:12:51;;;;;;;;;5.00;4.00;;;;;;;;5036741;28;51206;-51
2022/03/22 03:15:36;;;;;;;;;5.75;4.50;;;;;;;;5032142;28;51361;-45
2022/03/22 03:18:20;;;;;;;;;10.25;6.00;;;;;;;;5034912;28;51060;-48
2022/03/22 03:21:06;;;;;;;;;6.00;4.25;;;;;;;;5032919;28;51181;-48
2022/03/22 03:24:10;;;;;;;;;15.00;4.25;;;;;;;;5017718;28;51256;-46
2022/03/22 03:26:56;;;;;;;;;9.50;5.50;;;;;;;;5018242;28;51204;-47
2022/03/22 03:29:46;;;;;;;;;10.00;6.00;;;;;;;;5019634;28;51185;-46
2022/03/22 03:32:51;;;;;;;;;10.75;9.00;;;;;;;;5007367;28;51160;-45
2022/03/22 03:35:36;;;;;;;;;9.00;7.00;;;;;;;;5019133;28;51142;-46
2022/03/22 03:38:22;;;;;;;;;8.00;6.00;;;;;;;;5018488;28;51304;-46
2022/03/22 03:47:26;;;;;;;;;7.75;5.50;;;;;;;;5020397;28;51249;-46
2022/03/22 03:50:26;;;;;;;;;8.75;5.00;;;;;;;;5020999;28;51202;-49
2022/03/22 03:53:19;;;;;;;;;5.75;5.75;;;;;;;;5021594;28;51025;-46
2022/03/22 03:56:04;;;;;;;;;6.25;5.50;;;;;;;;5019605;28;51159;-47
2022/03/22 03:58:51;;;;;;;;;10.75;6.00;;;;;;;;5020006;28;51201;-46
2022/03/22 04:01:38;;;;;;;;;14.00;9.50;;;;;;;;5019825;28;51167;-46
2022/03/22 04:04:27;;;;;;;;;10.25;8.00;;;;;;;;5024064;28;50997;-48
2022/03/22 04:07:18;;;;;;;;;12.25;9.00;;;;;;;;5020521;28;51215;-46
2022/03/22 04:10:08;;;;;;;;;12.00;8.50;;;;;;;;5020927;28;51140;-45
2022/03/22 04:12:52;;;;;;;;;11.25;8.00;;;;;;;;5021015;28;51681;-47
2022/03/22 04:15:36;;;;;;;;;13.75;9.00;;;;;;;;5019574;28;52245;-46
2022/03/22 04:18:21;;;;;;;;;8.00;8.00;;;;;;;;5020035;28;51139;-46
2022/03/22 04:21:11;;;;;;;;;13.25;9.00;;;;;;;;5024917;28;51181;-46
2022/03/22 04:24:06;;;;;;;;;10.00;7.00;;;;;;;;5038359;28;51170;-50
2022/03/22 04:33:37;;;;;;;;;14.50;9.00;;;;;;;;5028488;28;51428;-46
2022/03/22 04:36:25;;;;;;;;;14.25;8.75;;;;;;;;5038463;28;51547;-46
2022/03/22 04:39:21;;;;;;;;;11.25;8.25;;;;;;;;5036328;28;51498;-44
2022/03/22 04:42:15;;;;;;;;;14.00;9.50;;;;;;;;5037671;28;51242;-46
2022/03/22 04:45:01;;;;;;;;;13.75;11.00;;;;;;;;5037456;28;51254;-45
2022/03/22 04:48:04;;;;;;;;;24.25;19.00;;;;;;;;5038300;28;51057;-46
2022/03/22 04:56:43;;;;;;;;;10.25;9.00;;;;;;;;5038966;28;51143;-47
2022/03/22 04:57:00;;;;;;;;;16.50;11.75;;;;;;;;5038803;28;51655;-46
2022/03/22 04:59:54;;;;;;;;;15.00;10.25;;;;;;;;5036100;28;51145;-49
2022/03/22 05:02:43;;;;;;;;;14.75;7.50;;;;;;;;5034523;28;51081;-48
2022/03/22 05:08:47;;;;;;;;;13.50;9.00;;;;;;;;5038322;28;51273;-45
2022/03/22 05:11:36;;;;;;;;;14.50;8.00;;;;;;;;5038503;28;51046;-46
2022/03/22 05:14:20;;;;;;;;;11.25;9.50;;;;;;;;5038722;28;50983;-46
2022/03/22 05:17:24;;;;;;;;;14.00;9.50;;;;;;;;5038133;28;51017;-45
2022/03/22 05:20:12;;;;;;;;;9.75;8.00;;;;;;;;5038658;28;51259;-46
2022/03/22 05:22:58;;;;;;;;;16.50;11.50;;;;;;;;5033246;28;51212;-46
2022/03/22 05:25:44;;;;;;;;;22.75;10.00;;;;;;;;5037354;28;51088;-48
2022/03/22 05:28:39;;;;;;;;;16.75;11.00;;;;;;;;5038584;28;51217;-46
2022/03/22 05:31:23;;;;;;;;;17.25;12.75;;;;;;;;5035781;28;51144;-48
2022/03/22 05:34:09;;;;;;;;;18.00;13.75;;;;;;;;5033255;28;51506;-48
2022/03/22 05:37:14;;;;;;;;;21.00;15.50;;;;;;;;5041781;28;51041;-49
2022/03/22 05:40:00;;;;;;;;;19.50;17.00;;;;;;;;5042366;28;51079;-45
2022/03/22 05:42:48;;;;;;;;;18.75;15.00;;;;;;;;5042142;28;51070;-48
2022/03/22 05:45:34;;;;;;;;;23.25;16.25;;;;;;;;5026358;28;51481;-47
2022/03/22 05:48:20;;;;;;;;;18.00;16.00;;;;;;;;5040562;28;51120;-47
2022/03/22 05:51:06;;;;;;;;;17.00;15.00;;;;;;;;5039380;28;51175;-47
2022/03/22 05:53:56;;;;;;;;;21.25;16.00;;;;;;;;5039495;28;51068;-46
2022/03/22 05:56:44;;;;;;;;;18.25;14.75;;;;;;;;5040325;28;51734;-51
2022/03/22 05:59:30;;;;;;;;;24.75;15.50;;;;;;;;5041063;28;51187;-47
2022/03/22 06:02:17;;;;;;;;;28.00;19.00;;;;;;;;5026106;28;51279;-47
2022/03/22 06:05:16;;;;;;;;;24.00;19.00;;;;;;;;5040435;28;51557;-45
2022/03/22 06:08:04;;;;;;;;;22.50;19.25;;;;;;;;5041486;28;51541;-49
2022/03/22 06:10:49;;;;;;;;;26.75;19.75;;;;;;;;5036224;28;52500;-45
2022/03/22 06:13:36;;;;;;;;;19.25;17.25;;;;;;;;5040520;28;51104;-48
2022/03/22 06:16:28;;;;;;;;;21.50;19.00;;;;;;;;5038139;28;51124;-47
2022/03/22 06:19:15;;;;;;;;;20.50;17.50;;;;;;;;5040501;28;51081;-49
2022/03/22 06:22:00;;;;;;;;;29.75;24.25;;;;;;;;5041320;28;51296;-48
2022/03/22 06:24:44;;;;;;;;;30.25;24.00;;;;;;;;5041181;28;51131;-46
2022/03/22 06:27:29;;;;;;;;;22.00;19.00;;;;;;;;5037963;28;51045;-46
2022/03/22 06:30:34;;;;;;;;;25.75;20.25;;;;;;;;5039617;28;51477;-47
2022/03/22 06:33:18;;;;;;;;;24.25;21.50;;;;;;;;5040908;28;51145;-46
2022/03/22 06:36:08;;;;;;;;;24.00;20.50;;;;;;;;5039648;28;51548;-48
2022/03/22 06:38:52;;;;;;;;;25.75;21.75;;;;;;;;5040779;28;51056;-46
2022/03/22 06:41:51;;;;;;;;;35.50;26.75;;;;;;;;5039587;28;51172;-46
2022/03/22 06:44:41;;;;;;;;;24.25;19.00;;;;;;;;5038986;28;51644;-46
2022/03/22 06:47:26;;;;;;;;;27.50;22.50;;;;;;;;5038127;28;51644;-49
2022/03/22 06:50:12;;;;;;;;;30.00;26.50;;;;;;;;5039966;28;51146;-47
2022/03/22 06:53:06;;;;;;;;;35.25;28.00;;;;;;;;5041075;28;51022;-47
2022/03/22 06:55:52;;;;;;;;;37.00;25.50;;;;;;;;5040436;28;50983;-46
2022/03/22 06:58:41;;;;;;;;;26.00;18.75;;;;;;;;5036657;28;51080;-51
2022/03/22 07:01:37;;;;;;;;;37.25;32.75;;;;;;;;5040829;28;51751;-48
2022/03/22 07:04:24;;;;;;;;;29.75;24.50;;;;;;;;5039687;28;50983;-48
2022/03/22 07:07:19;;;;;;;;;31.75;25.50;;;;;;;;5040874;28;51137;-47
2022/03/22 07:10:17;;;;;;;;;27.00;24.50;;;;;;;;5037040;28;51449;-50
2022/03/22 07:13:08;;;;;;;;;27.50;22.25;;;;;;;;5041040;28;51462;-47
2022/03/22 07:15:59;;;;;;;;;30.75;25.50;;;;;;;;5039697;28;51235;-50
2022/03/22 07:18:50;;;;;;;;;28.50;26.00;;;;;;;;5040370;28;51049;-51
2022/03/22 07:21:34;;;;;;;;;27.25;21.00;;;;;;;;5040029;28;51436;-47
2022/03/22 07:24:21;;;;;;;;;30.50;22.25;;;;;;;;5040152;28;51153;-50
2022/03/22 07:27:07;;;;;;;;;37.00;27.75;;;;;;;;5040427;28;52200;-48
2022/03/22 07:29:58;;;;;;;;;31.75;29.75;;;;;;;;5039701;28;51206;-47
2022/03/22 07:32:46;;;;;;;;;35.00;30.50;;;;;;;;5037559;28;51136;-48
2022/03/22 07:35:32;;;;;;;;;40.00;32.00;;;;;;;;5040146;28;51180;-49
2022/03/22 07:38:18;;;;;;;;;38.25;31.75;;;;;;;;5040036;28;51069;-45
2022/03/22 07:41:10;;;;;;;;;37.00;29.00;;;;;;;;5039920;28;51080;-46
2022/03/22 07:43:54;;;;;;;;;36.00;30.25;;;;;;;;5040645;28;51105;-45
2022/03/22 07:46:41;;;;;;;;;37.00;32.00;;;;;;;;5038612;28;51075;-45
2022/03/22 07:55:41;;;;;;;;;43.00;32.75;;;;;;;;5039849;28;51202;-48
2022/03/22 07:58:26;;;;;;;;;37.75;30.50;;;;;;;;5024793;28;51160;-49
2022/03/22 08:01:12;;;;;;;;;45.50;35.75;;;;;;;;5024978;28;51668;-51
2022/03/22 08:03:57;;;;;;;;;38.50;31.75;;;;;;;;5037390;28;51099;-45
2022/03/22 08:06:44;;;;;;;;;32.00;24.50;;;;;;;;5038133;28;51716;-52
2022/03/22 08:09:28;;;;;;;;;38.25;30.25;;;;;;;;5038889;28;51225;-50
2022/03/22 08:12:15;;;;;;;;;25.50;22.75;;;;;;;;5038515;28;51338;-47
2022/03/22 08:15:00;;;;;;;;;24.00;18.00;;;;;;;;5036076;28;51127;-49
2022/03/22 08:17:45;;;;;;;;;28.25;20.75;;;;;;;;5037565;28;51143;-52
2022/03/22 08:20:32;;;;;;;;;29.50;21.75;;;;;;;;5031600;28;51255;-50
2022/03/22 08:23:27;;;;;;;;;18.75;14.00;;;;;;;;5021722;28;51080;-49
2022/03/22 08:26:14;;;;;;;;;21.75;14.50;;;;;;;;5036900;28;51266;-48
2022/03/22 08:28:58;;;;;;;;;20.50;16.00;;;;;;;;5036798;28;51334;-49
2022/03/22 08:31:44;;;;;;;;;21.50;14.00;;;;;;;;5038480;28;51076;-47
2022/03/22 08:34:41;;;;;;;;;15.25;13.00;;;;;;;;5038153;28;51201;-49
2022/03/22 08:37:36;;;;;;;;;17.00;12.75;;;;;;;;5036150;28;51157;-50
2022/03/22 08:40:22;;;;;;;;;14.00;8.75;;;;;;;;5034406;28;51063;-51
2022/03/22 08:43:07;;;;;;;;;17.00;14.25;;;;;;;;5023170;28;51071;-46
2022/03/22 08:45:54;;;;;;;;;14.25;9.00;;;;;;;;5036889;28;51230;-49
2022/03/22 08:48:45;;;;;;;;;19.50;11.25;;;;;;;;5038762;28;51026;-48
2022/03/22 08:51:42;;;;;;;;;13.25;8.00;;;;;;;;5038396;28;51122;-49
2022/03/22 08:54:51;;;;;;;;;15.00;9.75;;;;;;;;5037717;28;51200;-48
2022/03/22 08:57:36;;;;;;;;;14.75;9.25;;;;;;;;5037974;28;51049;-48
2022/03/22 09:00:24;;;;;;;;;13.00;8.25;;;;;;;;5033146;28;51594;-47
2022/03/22 09:03:15;;;;;;;;;9.25;4.75;;;;;;;;5037578;28;51473;-49
2022/03/22 09:06:18;;;;;;;;;11.75;6.25;;;;;;;;5037559;28;51115;-48
2022/03/22 09:09:15;;;;;;;;;10.25;7.00;;;;;;;;5037420;28;51487;-48
2022/03/22 09:12:09;;;;;;;;;13.75;7.00;;;;;;;;5038640;28;51101;-49
2022/03/22 09:15:03;;;;;;;;;9.50;7.00;;;;;;;;5038876;28;51141;-49
2022/03/22 09:17:50;;;;;;;;;8.25;4.50;;;;;;;;5037746;28;51076;-51
2022/03/22 09:20:37;;;;;;;;;11.25;4.75;;;;;;;;5038241;28;51375;-51
2022/03/22 09:23:34;;;;;;;;;10.25;4.50;;;;;;;;5018456;28;51045;-47
2022/03/22 09:26:20;;;;;;;;;9.00;6.50;;;;;;;;5017631;28;51109;-51
2022/03/22 09:29:07;;;;;;;;;7.75;5.00;;;;;;;;5017544;28;51163;-46
2022/03/22 09:31:52;;;;;;;;;11.25;7.50;;;;;;;;5018268;28;51121;-44
2022/03/22 09:34:47;;;;;;;;;9.75;6.50;;;;;;;;5013414;28;51109;-46
2022/03/22 09:37:32;;;;;;;;;6.75;5.25;;;;;;;;5002980;28;51090;-47
2022/03/22 09:40:21;;;;;;;;;8.25;0.75;;;;;;;;5017604;28;51145;-48
2022/03/22 09:43:07;;;;;;;;;8.50;5.75;;;;;;;;4998733;28;51199;-46
2022/03/22 09:45:53;;;;;;;;;7.00;6.00;;;;;;;;5018106;28;51382;-46
2022/03/22 09:48:39;;;;;;;;;8.25;5.00;;;;;;;;5016409;28;51096;-48
2022/03/22 09:51:48;;;;;;;;;8.00;4.75;;;;;;;;5018362;28;51112;-48
2022/03/22 09:54:32;;;;;;;;;17.00;13.50;;;;;;;;5015874;28;51255;-49
2022/03/22 09:57:26;;;;;;;;;19.00;17.00;;;;;;;;5018019;28;51009;-54
2022/03/22 10:00:16;;;;;;;;;9.50;7.25;;;;;;;;5017864;28;51172;-48
2022/03/22 10:03:03;;;;;;;;;12.50;7.50;;;;;;;;5018165;28;51143;-49
2022/03/22 10:06:07;;;;;;;;;13.00;7.50;;;;;;;;5017801;28;51116;-49
2022/03/22 10:08:51;;;;;;;;;7.25;5.25;;;;;;;;5017843;28;51093;-52
2022/03/22 10:11:40;;;;;;;;;5.25;4.75;;;;;;;;5017921;28;51119;-49
2022/03/22 10:14:38;;;;;;;;;8.75;5.50;;;;;;;;4998612;28;51099;-49
2022/03/22 10:17:28;;;;;;;;;6.25;5.75;;;;;;;;5018551;28;51098;-48
2022/03/22 10:20:23;;;;;;;;;8.75;6.50;;;;;;;;5016839;28;52047;-51
2022/03/22 10:23:09;;;;;;;;;15.75;7.00;;;;;;;;5023186;28;51306;-51
2022/03/22 10:26:09;;;;;;;;;7.50;5.00;;;;;;;;5041648;28;51124;-52
2022/03/22 10:28:56;;;;;;;;;6.50;4.00;;;;;;;;5026012;28;51814;-52
2022/03/22 10:31:43;;;;;;;;;8.50;4.50;;;;;;;;5040063;28;51168;-49
2022/03/22 10:34:53;;;;;;;;;13.50;8.75;;;;;;;;5041706;28;51136;-48
2022/03/22 10:37:41;;;;;;;;;14.25;11.00;;;;;;;;5041834;28;51374;-52
2022/03/22 10:40:44;;;;;;;;;12.00;6.75;;;;;;;;5036583;28;51086;-51
2022/03/22 10:43:36;;;;;;;;;8.75;5.25;;;;;;;;5041263;28;51057;-55
2022/03/22 10:46:26;;;;;;;;;10.00;6.25;;;;;;;;5040636;28;51358;-51
2022/03/22 10:49:12;;;;;;;;;6.75;5.00;;;;;;;;5040508;28;51172;-50
2022/03/22 10:51:57;;;;;;;;;7.00;5.75;;;;;;;;5021508;28;51316;-53
2022/03/22 10:54:48;;;;;;;;;9.00;6.25;;;;;;;;5040381;28;51284;-53
2022/03/22 10:57:37;;;;;;;;;10.00;6.00;;;;;;;;5041139;28;51116;-50
2022/03/22 11:00:22;;;;;;;;;8.25;5.25;;;;;;;;5040292;28;51106;-48
2022/03/22 11:03:07;;;;;;;;;7.25;7.00;;;;;;;;5040630;28;51136;-54
2022/03/22 11:05:53;;;;;;;;;13.00;7.25;;;;;;;;5040758;28;51188;-49
2022/03/22 11:08:41;;;;;;;;;10.25;7.50;;;;;;;;5037026;28;51118;-48
2022/03/22 11:11:50;;;;;;;;;13.00;6.75;;;;;;;;5040900;28;51197;-47
2022/03/22 11:14:37;;;;;;;;;7.25;6.00;;;;;;;;5040982;28;51149;-47
2022/03/22 11:17:35;;;;;;;;;10.00;6.50;;;;;;;;5040658;28;51176;-49
2022/03/22 11:20:22;;;;;;;;;9.50;5.75;;;;;;;;5040385;28;51243;-49
2022/03/22 11:23:09;;;;;;;;;11.50;6.00;;;;;;;;5025453;28;51496;-49
2022/03/22 11:25:53;;;;;;;;;6.75;5.50;;;;;;;;5039120;28;51129;-50
2022/03/22 11:28:39;;;;;;;;;10.50;6.50;;;;;;;;5033385;28;51443;-51
2022/03/22 11:31:25;;;;;;;;;6.75;4.50;;;;;;;;5040111;28;51164;-53
2022/03/22 11:34:13;;;;;;;;;9.50;6.75;;;;;;;;5024162;28;51219;-48
2022/03/22 11:37:00;;;;;;;;;7.25;4.75;;;;;;;;5039615;28;51125;-53
2022/03/22 11:42:56;;;;;;;;;9.50;6.00;;;;;;;;5022002;28;51417;-49
2022/03/22 11:45:50;;;;;;;;;3.25;0.75;;;;;;;;5038043;28;51088;-53
2022/03/22 11:48:37;;;;;;;;;8.25;5.75;;;;;;;;5039209;28;51407;-50
2022/03/22 11:51:23;;;;;;;;;9.25;3.25;;;;;;;;5040060;28;51145;-50
2022/03/22 11:54:09;;;;;;;;;8.50;5.25;;;;;;;;5036288;28;51085;-50
2022/03/22 11:56:56;;;;;;;;;6.75;5.50;;;;;;;;5037890;28;51198;-48
2022/03/22 12:00:01;;;;;;;;;7.75;5.75;;;;;;;;5039803;28;51193;-47
2022/03/22 12:02:52;;;;;;;;;7.50;4.25;;;;;;;;5033041;28;51525;-47
2022/03/22 12:05:36;;;;;;;;;7.00;4.50;;;;;;;;5039563;28;51104;-49
2022/03/22 12:08:21;;;;;;;;;8.75;5.00;;;;;;;;5038589;28;51422;-51
2022/03/22 12:11:27;;;;;;;;;11.25;3.75;;;;;;;;5036698;28;51278;-50
2022/03/22 12:14:12;;;;;;;;;6.25;5.00;;;;;;;;5039616;28;51456;-49
2022/03/22 12:16:57;;;;;;;;;9.00;6.00;;;;;;;;5038936;28;51346;-54
2022/03/22 12:19:42;;;;;;;;;7.75;5.75;;;;;;;;5037041;28;51152;-49
2022/03/22 12:22:27;;;;;;;;;7.25;3.75;;;;;;;;5038591;28;51098;-48
2022/03/22 12:25:12;;;;;;;;;3.75;3.00;;;;;;;;5039574;28;51097;-51
2022/03/22 12:28:08;;;;;;;;;6.50;6.00;;;;;;;;5037257;28;51477;-53
2022/03/22 12:30:54;;;;;;;;;5.75;5.50;;;;;;;;5039946;28;51198;-50
2022/03/22 12:33:38;;;;;;;;;8.00;6.00;;;;;;;;5034492;28;51483;-52
2022/03/22 12:36:25;;;;;;;;;7.25;4.00;;;;;;;;5038661;28;52523;-51
2022/03/22 12:39:12;;;;;;;;;6.50;4.00;;;;;;;;5040275;28;51018;-50
2022/03/22 12:41:57;;;;;;;;;5.75;4.00;;;;;;;;5037002;28;51049;-53
2022/03/22 12:44:42;;;;;;;;;7.00;4.75;;;;;;;;5038272;28;51371;-54
2022/03/22 12:47:31;;;;;;;;;11.50;4.25;;;;;;;;5038291;28;51153;-51
2022/03/22 12:50:23;;;;;;;;;6.25;5.25;;;;;;;;5036377;28;51175;-53
2022/03/22 12:53:07;;;;;;;;;4.75;4.25;;;;;;;;5038330;28;51361;-50
2022/03/22 12:55:52;;;;;;;;;8.00;5.50;;;;;;;;5038112;28;51255;-56
2022/03/22 12:58:49;;;;;;;;;5.00;3.50;;;;;;;;5038715;28;51157;-47
2022/03/22 13:01:40;;;;;;;;;9.50;4.00;;;;;;;;5037344;28;51116;-51
2022/03/22 13:04:35;;;;;;;;;7.00;4.00;;;;;;;;5037378;28;51381;-52
2022/03/22 13:07:33;;;;;;;;;10.25;3.50;;;;;;;;5037891;28;51313;-47
2022/03/22 13:13:23;;;;;;;;;6.75;5.00;;;;;;;;5039047;28;51175;-51
2022/03/22 13:16:07;;;;;;;;;4.50;1.25;;;;;;;;5037471;28;51210;-46
2022/03/22 13:19:09;;;;;;;;;12.00;5.50;;;;;;;;5037469;28;51624;-49
2022/03/22 13:21:54;;;;;;;;;9.75;7.25;;;;;;;;5035569;28;51173;-50
2022/03/22 13:24:40;;;;;;;;;9.00;5.25;;;;;;;;5038008;28;51318;-48
2022/03/22 13:27:25;;;;;;;;;12.00;5.75;;;;;;;;5038620;28;50800;-49
2022/03/22 13:30:21;;;;;;;;;8.50;5.00;;;;;;;;5039303;28;51536;-52
2022/03/22 13:33:14;;;;;;;;;9.00;4.25;;;;;;;;5038705;28;51227;-49
2022/03/22 13:36:06;;;;;;;;;4.50;3.50;;;;;;;;5039528;28;51050;-48
2022/03/22 13:39:12;;;;;;;;;4.00;4.00;;;;;;;;5033902;28;51095;-53
2022/03/22 13:42:25;;;;;;;;;8.25;4.00;;;;;;;;5039175;28;51196;-49
2022/03/22 13:45:11;;;;;;;;;7.00;3.75;;;;;;;;5033060;28;51471;-49
2022/03/22 13:47:55;;;;;;;;;11.50;7.50;;;;;;;;5040121;28;51222;-49
2022/03/22 13:50:40;;;;;;;;;6.25;5.75;;;;;;;;5038433;28;51105;-49
2022/03/22 13:53:25;;;;;;;;;10.00;7.75;;;;;;;;5032784;28;51086;-47
2022/03/22 13:56:09;;;;;;;;;9.25;5.25;;;;;;;;5039867;28;51392;-47
2022/03/22 13:58:54;;;;;;;;;4.50;3.25;;;;;;;;5041067;28;51110;-50
2022/03/22 14:01:42;;;;;;;;;7.25;4.00;;;;;;;;5041954;28;51331;-50
2022/03/22 14:04:35;;;;;;;;;8.75;5.75;;;;;;;;5038057;28;51171;-47
2022/03/22 14:07:26;;;;;;;;;9.25;3.75;;;;;;;;5035661;28;51002;-52
2022/03/22 14:10:20;;;;;;;;;6.25;3.00;;;;;;;;5039759;28;51462;-55
2022/03/22 14:13:06;;;;;;;;;7.50;5.00;;;;;;;;5039262;28;51123;-49
2022/03/22 14:15:51;;;;;;;;;10.00;6.25;;;;;;;;5021595;28;51087;-49
2022/03/22 14:18:36;;;;;;;;;10.25;5.75;;;;;;;;5025902;28;51080;-50
2022/03/22 14:21:21;;;;;;;;;7.50;4.00;;;;;;;;5038157;28;51132;-51
2022/03/22 14:24:06;;;;;;;;;6.25;4.75;;;;;;;;5039722;28;51064;-53
2022/03/22 14:26:55;;;;;;;;;8.75;5.25;;;;;;;;5040654;28;51563;-47
2022/03/22 14:30:15;;;;;;;;;11.00;5.50;;;;;;;;5037856;28;51167;-47
2022/03/22 14:33:04;;;;;;;;;8.25;6.00;;;;;;;;5042590;28;51172;-47
2022/03/22 14:35:56;;;;;;;;;7.75;4.50;;;;;;;;5039206;28;51219;-47
2022/03/22 14:38:50;;;;;;;;;4.75;4.25;;;;;;;;5041819;28;51160;-49
2022/03/22 14:41:37;;;;;;;;;9.50;7.50;;;;;;;;5041435;28;51097;-48
2022/03/22 14:44:23;;;;;;;;;7.25;5.25;;;;;;;;5043273;28;51190;-51
2022/03/22 14:47:15;;;;;;;;;11.25;5.75;;;;;;;;5041449;28;51554;-50
2022/03/22 14:50:03;;;;;;;;;8.00;6.75;;;;;;;;5041179;28;51448;-51
2022/03/22 14:58:47;;;;;;;;;8.75;5.00;;;;;;;;5028442;28;51107;-47
2022/03/22 14:59:03;;;;;;;;;8.75;4.75;;;;;;;;5036596;28;51111;-49
2022/03/22 15:01:59;;;;;;;;;13.25;4.50;;;;;;;;5040926;28;51168;-47
2022/03/22 15:04:56;;;;;;;;;9.50;5.50;;;;;;;;5040478;28;51068;-47
2022/03/22 15:07:41;;;;;;;;;10.50;6.25;;;;;;;;5039138;28;51126;-50
2022/03/22 15:10:26;;;;;;;;;10.50;7.25;;;;;;;;5041491;28;51161;-47
2022/03/22 15:13:20;;;;;;;;;9.50;6.25;;;;;;;;5040530;28;51437;-51
2022/03/22 15:16:08;;;;;;;;;7.25;6.00;;;;;;;;5040681;28;51400;-51
2022/03/22 15:18:52;;;;;;;;;11.00;8.00;;;;;;;;5044626;28;51168;-48
2022/03/22 15:21:37;;;;;;;;;9.75;6.00;;;;;;;;5035569;28;51042;-47
2022/03/22 15:24:21;;;;;;;;;7.25;5.00;;;;;;;;5036112;28;51242;-51
2022/03/22 15:27:09;;;;;;;;;4.50;4.50;;;;;;;;5040966;28;51402;-51
2022/03/22 15:29:53;;;;;;;;;6.25;0.00;;;;;;;;5037280;28;51136;-50
2022/03/22 15:32:37;;;;;;;;;8.75;5.75;;;;;;;;5036485;28;51175;-48
2022/03/22 15:35:24;;;;;;;;;8.00;6.00;;;;;;;;5039245;28;51204;-49
2022/03/22 15:38:09;;;;;;;;;11.25;5.50;;;;;;;;5035393;28;51548;-51
2022/03/22 15:40:54;;;;;;;;;7.50;4.00;;;;;;;;5039689;28;51105;-48
2022/03/22 15:43:38;;;;;;;;;9.00;6.50;;;;;;;;5038611;28;51114;-48
2022/03/22 15:46:22;;;;;;;;;9.75;5.75;;;;;;;;5029973;28;51298;-50
2022/03/22 15:49:07;;;;;;;;;10.25;5.00;;;;;;;;5038537;28;51156;-51
2022/03/22 15:51:51;;;;;;;;;3.75;2.50;;;;;;;;5038586;28;51113;-50
2022/03/22 15:54:37;;;;;;;;;12.00;7.50;;;;;;;;5036021;28;51266;-50
2022/03/22 15:57:23;;;;;;;;;14.75;5.75;;;;;;;;5025355;28;51086;-48
2022/03/22 16:00:12;;;;;;;;;10.00;8.25;;;;;;;;5022324;28;51200;-52
2022/03/22 16:02:57;;;;;;;;;5.50;5.25;;;;;;;;5037284;28;51278;-51
2022/03/22 16:05:41;;;;;;;;;7.25;5.00;;;;;;;;5038981;28;51129;-48
2022/03/22 16:08:25;;;;;;;;;7.25;5.00;;;;;;;;5038347;28;51103;-50
2022/03/22 16:11:10;;;;;;;;;10.25;6.25;;;;;;;;5035018;28;51318;-50
2022/03/22 16:13:54;;;;;;;;;13.75;7.50;;;;;;;;5037853;28;51204;-52
2022/03/22 16:16:42;;;;;;;;;8.00;6.75;;;;;;;;5038846;28;51054;-48
2022/03/22 16:19:26;;;;;;;;;10.50;7.25;;;;;;;;5040976;28;51393;-52
2022/03/22 16:22:11;;;;;;;;;5.00;5.00;;;;;;;;5033349;28;51131;-51
2022/03/22 16:24:58;;;;;;;;;17.00;4.75;;;;;;;;5038146;28;51078;-50
2022/03/22 16:27:44;;;;;;;;;15.25;6.25;;;;;;;;5037505;28;51141;-50
2022/03/22 16:30:28;;;;;;;;;13.50;9.00;;;;;;;;5037784;28;51152;-48
2022/03/22 16:39:25;;;;;;;;;11.25;5.50;;;;;;;;5038058;28;51491;-49
2022/03/22 16:42:12;;;;;;;;;12.75;8.50;;;;;;;;5036918;28;51536;-49
2022/03/22 16:44:57;;;;;;;;;38.75;27.50;;;;;;;;5038885;28;51800;-48
2022/03/22 16:47:41;;;;;;;;;16.00;10.25;;;;;;;;5037897;28;51140;-48
2022/03/22 16:50:25;;;;;;;;;18.50;12.00;;;;;;;;5037603;28;51148;-50
2022/03/22 16:53:10;;;;;;;;;11.00;9.00;;;;;;;;5036988;28;51465;-49
2022/03/22 16:56:02;;;;;;;;;13.75;13.75;;;;;;;;5037000;28;51161;-49
2022/03/22 16:58:46;;;;;;;;;16.75;12.00;;;;;;;;5037704;28;51067;-49
2022/03/22 17:01:31;;;;;;;;;14.25;8.50;;;;;;;;5034663;28;51222;-49
2022/03/22 17:04:16;;;;;;;;;15.75;6.75;;;;;;;;5036371;28;51296;-50
2022/03/22 17:07:03;;;;;;;;;9.25;6.00;;;;;;;;5035175;28;51196;-53
2022/03/22 17:09:47;;;;;;;;;12.75;8.00;;;;;;;;5035465;28;51651;-53
2022/03/22 17:12:32;;;;;;;;;9.75;5.50;;;;;;;;5034552;28;51248;-48
2022/03/22 17:15:17;;;;;;;;;14.50;7.25;;;;;;;;5035034;28;51191;-52
2022/03/22 17:18:02;;;;;;;;;11.75;6.50;;;;;;;;5036296;28;51260;-52
2022/03/22 17:20:46;;;;;;;;;7.00;4.25;;;;;;;;5036015;28;51135;-51
2022/03/22 17:23:32;;;;;;;;;9.25;9.00;;;;;;;;5036799;28;51459;-52
2022/03/22 17:26:18;;;;;;;;;12.00;9.00;;;;;;;;5036757;28;51204;-47
2022/03/22 17:29:03;;;;;;;;;7.25;7.25;;;;;;;;5037158;28;51206;-49
2022/03/22 17:31:47;;;;;;;;;10.50;7.00;;;;;;;;5036807;28;51136;-49